Time;durP1;ratioP1;P1;durP2;ratioP2;P2;SDS_P1;SDS_P2;PMS_P1;PMS_P2;Temp;Humidity;BMP_temperature;BMP_pressure;BME280_temperature;BME280_humidity;BME280_pressure;Samples;Min_cycle;Max_cycle;Signal;HPM_P1;HPM_P2
2024/01/24 00:00:01;;;;;;;6.80;5.83;;;;;;;;;;5089035;28;20567;-65
2024/01/24 00:02:27;;;;;;;6.87;6.20;;;;;;;;;;5092498;28;20447;-66
2024/01/24 00:04:54;;;;;;;8.30;6.67;;;;;;;;;;5092639;28;20456;-65
2024/01/24 00:07:22;;;;;;;12.13;7.40;;;;;;;;;;5100498;28;20479;-65
2024/01/24 00:09:48;;;;;;;11.80;7.80;;;;;;;;;;5092058;28;20454;-65
2024/01/24 00:12:14;;;;;;;9.43;6.63;;;;;;;;;;5096104;28;20788;-65
2024/01/24 00:14:41;;;;;;;12.03;7.63;;;;;;;;;;5097977;28;20952;-65
2024/01/24 00:17:08;;;;;;;7.83;7.03;;;;;;;;;;5095028;28;20459;-67
2024/01/24 00:19:34;;;;;;;14.53;7.50;;;;;;;;;;5094757;28;20479;-66
2024/01/24 00:22:01;;;;;;;9.23;6.70;;;;;;;;;;5096286;28;20454;-67
2024/01/24 00:24:29;;;;;;;7.80;7.10;;;;;;;;;;5104872;28;20458;-67
2024/01/24 00:26:55;;;;;;;10.10;7.17;;;;;;;;;;5095587;28;20483;-66
2024/01/24 00:29:21;;;;;;;10.10;7.90;;;;;;;;;;5092099;28;20471;-66
2024/01/24 00:31:48;;;;;;;9.50;7.20;;;;;;;;;;5095442;28;20570;-65
2024/01/24 00:34:15;;;;;;;10.70;7.70;;;;;;;;;;5091490;28;20440;-65
2024/01/24 00:36:41;;;;;;;9.30;7.77;;;;;;;;;;5094116;28;20467;-66
2024/01/24 00:39:08;;;;;;;13.20;8.53;;;;;;;;;;5087737;28;20474;-66
2024/01/24 00:41:35;;;;;;;11.53;8.50;;;;;;;;;;5094608;28;20487;-65
2024/01/24 00:44:02;;;;;;;10.20;8.23;;;;;;;;;;5096908;28;20542;-64
2024/01/24 00:46:28;;;;;;;12.73;8.00;;;;;;;;;;5091358;28;20471;-64
2024/01/24 00:48:54;;;;;;;12.23;9.03;;;;;;;;;;5098064;28;20547;-65
2024/01/24 00:51:21;;;;;;;15.97;10.60;;;;;;;;;;5091084;28;20491;-64
2024/01/24 00:53:51;;;;;;;13.93;10.03;;;;;;;;;;5088885;28;20470;-65
2024/01/24 00:56:17;;;;;;;14.30;9.60;;;;;;;;;;5096955;28;20449;-64
2024/01/24 00:58:45;;;;;;;17.33;9.00;;;;;;;;;;5086478;28;20455;-65
2024/01/24 01:01:11;;;;;;;14.27;9.70;;;;;;;;;;5088869;28;20607;-65
2024/01/24 01:03:38;;;;;;;12.80;9.37;;;;;;;;;;5088641;28;21283;-65
2024/01/24 01:06:05;;;;;;;22.73;10.67;;;;;;;;;;5095989;28;20759;-65
2024/01/24 01:08:31;;;;;;;17.00;10.00;;;;;;;;;;5098786;28;20461;-64
2024/01/24 01:10:58;;;;;;;15.73;10.70;;;;;;;;;;5099068;28;20451;-65
2024/01/24 01:13:25;;;;;;;15.27;9.67;;;;;;;;;;5095236;28;20443;-64
2024/01/24 01:15:52;;;;;;;15.97;10.17;;;;;;;;;;5094522;28;21203;-65
2024/01/24 01:18:18;;;;;;;14.57;10.23;;;;;;;;;;5093913;28;20444;-65
2024/01/24 01:20:45;;;;;;;17.17;9.40;;;;;;;;;;5091694;28;20567;-65
2024/01/24 01:23:11;;;;;;;12.23;9.83;;;;;;;;;;5103185;28;20463;-65
2024/01/24 01:25:37;;;;;;;9.73;8.47;;;;;;;;;;5092125;28;20490;-65
2024/01/24 01:28:04;;;;;;;13.87;9.40;;;;;;;;;;5100565;28;20530;-66
2024/01/24 01:30:30;;;;;;;12.33;7.73;;;;;;;;;;5091873;28;20455;-65
2024/01/24 01:32:58;;;;;;;11.70;9.50;;;;;;;;;;5095893;28;20680;-66
2024/01/24 01:35:25;;;;;;;13.60;8.50;;;;;;;;;;5091736;28;20527;-66
2024/01/24 01:37:51;;;;;;;12.67;8.83;;;;;;;;;;5096709;28;20447;-65
2024/01/24 01:40:17;;;;;;;15.77;9.50;;;;;;;;;;5091716;28;21086;-65
2024/01/24 01:42:45;;;;;;;16.33;8.47;;;;;;;;;;5094717;28;20490;-65
2024/01/24 01:45:11;;;;;;;17.87;10.20;;;;;;;;;;5093839;28;21024;-65
2024/01/24 01:47:38;;;;;;;14.40;8.67;;;;;;;;;;5093769;28;20483;-65
2024/01/24 01:50:07;;;;;;;12.13;8.83;;;;;;;;;;5090543;28;20480;-65
2024/01/24 01:52:33;;;;;;;13.40;10.03;;;;;;;;;;5096737;28;20451;-65
2024/01/24 01:54:59;;;;;;;16.77;9.50;;;;;;;;;;5095195;28;20474;-65
2024/01/24 01:57:26;;;;;;;12.33;8.90;;;;;;;;;;5095036;28;20451;-65
2024/01/24 01:59:52;;;;;;;16.23;10.20;;;;;;;;;;5094243;28;20486;-65
2024/01/24 02:02:19;;;;;;;13.50;9.50;;;;;;;;;;5089107;28;20444;-64
2024/01/24 02:04:46;;;;;;;12.77;10.03;;;;;;;;;;5088799;28;20474;-65
2024/01/24 02:07:15;;;;;;;18.60;9.60;;;;;;;;;;5090220;28;20479;-63
2024/01/24 02:09:41;;;;;;;13.50;10.60;;;;;;;;;;5096006;28;20457;-64
2024/01/24 02:12:08;;;;;;;12.77;9.80;;;;;;;;;;5096781;28;20497;-64
2024/01/24 02:14:34;;;;;;;15.00;11.00;;;;;;;;;;5090310;28;20833;-64
2024/01/24 02:17:01;;;;;;;13.07;9.73;;;;;;;;;;5096111;28;20531;-65
2024/01/24 02:19:28;;;;;;;12.70;9.57;;;;;;;;;;5097624;28;20454;-64
2024/01/24 02:21:54;;;;;;;14.00;11.10;;;;;;;;;;5092659;28;20518;-65
2024/01/24 02:24:22;;;;;;;14.73;9.53;;;;;;;;;;5088126;28;20443;-64
2024/01/24 02:26:48;;;;;;;11.97;8.90;;;;;;;;;;5101498;28;20494;-65
2024/01/24 02:29:15;;;;;;;11.30;9.47;;;;;;;;;;5096604;28;20876;-64
2024/01/24 02:31:41;;;;;;;16.90;11.40;;;;;;;;;;5097655;28;20578;-64
2024/01/24 02:34:08;;;;;;;16.60;10.60;;;;;;;;;;5105912;28;20474;-64
2024/01/24 02:36:34;;;;;;;12.43;9.77;;;;;;;;;;5098946;28;20494;-64
2024/01/24 02:39:00;;;;;;;11.53;10.33;;;;;;;;;;5098810;28;20527;-65
2024/01/24 02:41:28;;;;;;;11.10;9.70;;;;;;;;;;5096856;28;20511;-65
2024/01/24 02:43:55;;;;;;;13.67;10.63;;;;;;;;;;5094143;28;20527;-64
2024/01/24 02:46:21;;;;;;;10.50;9.40;;;;;;;;;;5097801;28;20504;-64
2024/01/24 02:48:47;;;;;;;12.30;9.60;;;;;;;;;;5094761;28;20479;-64
2024/01/24 02:51:23;;;;;;;13.20;10.50;;;;;;;;;;5097257;28;20514;-64
2024/01/24 02:53:49;;;;;;;13.37;10.30;;;;;;;;;;5093949;28;20485;-63
2024/01/24 02:56:16;;;;;;;12.83;10.50;;;;;;;;;;5101913;28;20533;-64
2024/01/24 02:58:44;;;;;;;15.30;11.00;;;;;;;;;;5100710;28;20523;-64
2024/01/24 03:01:10;;;;;;;12.07;10.27;;;;;;;;;;5093717;28;20485;-64
2024/01/24 03:03:38;;;;;;;12.80;10.33;;;;;;;;;;5097653;28;20492;-64
2024/01/24 03:06:05;;;;;;;11.03;9.90;;;;;;;;;;5097092;28;20448;-64
2024/01/24 03:08:46;;;;;;;12.90;9.23;;;;;;;;;;5092010;28;20475;-64
2024/01/24 03:11:12;;;;;;;13.70;10.13;;;;;;;;;;5097567;28;20454;-64
2024/01/24 03:13:39;;;;;;;11.97;9.73;;;;;;;;;;5093232;28;20491;-65
2024/01/24 03:16:07;;;;;;;11.03;9.80;;;;;;;;;;5098705;28;20447;-65
2024/01/24 03:18:35;;;;;;;13.30;9.70;;;;;;;;;;5097811;28;20483;-65
2024/01/24 03:21:02;;;;;;;8.80;7.90;;;;;;;;;;5090831;28;20508;-65
2024/01/24 03:23:28;;;;;;;11.87;10.13;;;;;;;;;;5087972;28;20451;-65
2024/01/24 03:25:55;;;;;;;10.53;9.43;;;;;;;;;;5098128;28;20479;-65
2024/01/24 03:28:21;;;;;;;10.90;9.13;;;;;;;;;;5093870;28;20444;-65
2024/01/24 03:30:48;;;;;;;10.70;9.70;;;;;;;;;;5091780;28;20440;-66
2024/01/24 03:33:16;;;;;;;14.43;8.77;;;;;;;;;;5095795;28;20484;-65
2024/01/24 03:35:42;;;;;;;8.70;7.73;;;;;;;;;;5098659;28;20889;-65
2024/01/24 03:38:09;;;;;;;8.47;6.10;;;;;;;;;;5089783;28;21091;-64
2024/01/24 03:40:35;;;;;;;7.70;6.83;;;;;;;;;;5098136;28;20586;-64
2024/01/24 03:43:03;;;;;;;13.13;7.90;;;;;;;;;;5096946;28;20540;-64
2024/01/24 03:45:29;;;;;;;6.90;5.97;;;;;;;;;;5095244;28;20439;-64
2024/01/24 03:47:56;;;;;;;7.50;6.80;;;;;;;;;;5092347;28;20487;-64
2024/01/24 03:50:23;;;;;;;9.40;6.13;;;;;;;;;;5094834;28;20510;-64
2024/01/24 03:52:50;;;;;;;10.83;7.40;;;;;;;;;;5095032;28;20518;-65
2024/01/24 03:55:16;;;;;;;13.00;7.17;;;;;;;;;;5092950;28;20482;-64
2024/01/24 03:57:43;;;;;;;8.20;7.50;;;;;;;;;;5096102;28;20481;-63
2024/01/24 04:00:11;;;;;;;6.70;6.00;;;;;;;;;;5095782;28;20516;-64
2024/01/24 04:02:37;;;;;;;8.07;7.27;;;;;;;;;;5091466;28;20490;-65
2024/01/24 04:05:04;;;;;;;6.47;5.87;;;;;;;;;;5095602;28;20896;-64
2024/01/24 04:07:32;;;;;;;6.33;5.73;;;;;;;;;;5097869;28;20455;-64
2024/01/24 04:10:00;;;;;;;6.53;5.63;;;;;;;;;;5089828;28;20494;-64
2024/01/24 04:12:26;;;;;;;5.53;5.03;;;;;;;;;;5089059;28;20508;-64
2024/01/24 04:14:53;;;;;;;8.00;5.13;;;;;;;;;;5095502;28;20443;-65
2024/01/24 04:17:19;;;;;;;4.83;4.50;;;;;;;;;;5095482;28;20513;-64
2024/01/24 04:19:46;;;;;;;4.80;4.50;;;;;;;;;;5096856;28;20475;-63
2024/01/24 04:22:12;;;;;;;5.87;5.47;;;;;;;;;;5092106;28;20484;-64
2024/01/24 04:24:40;;;;;;;7.73;5.70;;;;;;;;;;5095474;28;20455;-64
2024/01/24 04:27:07;;;;;;;4.93;4.53;;;;;;;;;;5089269;28;20447;-64
2024/01/24 04:29:33;;;;;;;4.03;3.63;;;;;;;;;;5093580;28;20479;-64
2024/01/24 04:32:00;;;;;;;3.57;2.93;;;;;;;;;;5083534;28;20464;-64
2024/01/24 04:34:26;;;;;;;3.90;3.50;;;;;;;;;;5095935;28;20451;-64
2024/01/24 04:36:54;;;;;;;4.07;3.10;;;;;;;;;;5097983;28;20498;-64
2024/01/24 04:39:21;;;;;;;3.27;3.03;;;;;;;;;;5092792;28;20529;-65
2024/01/24 04:41:49;;;;;;;2.43;2.23;;;;;;;;;;5092828;28;20512;-65
2024/01/24 04:44:15;;;;;;;2.30;2.00;;;;;;;;;;5096810;28;20542;-65
2024/01/24 04:46:42;;;;;;;2.13;2.03;;;;;;;;;;5094839;28;20889;-64
2024/01/24 04:49:08;;;;;;;2.10;1.90;;;;;;;;;;5093766;28;21096;-65
2024/01/24 04:51:34;;;;;;;2.00;1.37;;;;;;;;;;5093181;28;21088;-64
2024/01/24 04:54:01;;;;;;;1.50;1.13;;;;;;;;;;5094692;28;20515;-64
2024/01/24 04:56:27;;;;;;;2.50;1.43;;;;;;;;;;5097070;28;20569;-65
2024/01/24 04:58:55;;;;;;;2.20;1.13;;;;;;;;;;5101375;28;20945;-64
2024/01/24 05:01:22;;;;;;;2.53;1.00;;;;;;;;;;5091583;28;20522;-64
2024/01/24 05:03:48;;;;;;;1.00;1.00;;;;;;;;;;5093624;28;20443;-64
2024/01/24 05:06:14;;;;;;;1.60;1.10;;;;;;;;;;5094198;28;20478;-65
2024/01/24 05:08:41;;;;;;;1.30;1.20;;;;;;;;;;5093992;28;20462;-65
2024/01/24 05:11:07;;;;;;;1.40;1.30;;;;;;;;;;5092834;28;20554;-64
2024/01/24 05:13:34;;;;;;;2.23;2.03;;;;;;;;;;5088834;28;20554;-65
2024/01/24 05:16:02;;;;;;;3.10;1.20;;;;;;;;;;5092169;28;20484;-64
2024/01/24 05:18:28;;;;;;;2.60;1.53;;;;;;;;;;5093198;28;20487;-65
2024/01/24 05:20:54;;;;;;;2.47;1.53;;;;;;;;;;5090120;28;20455;-65
2024/01/24 05:23:21;;;;;;;3.03;1.27;;;;;;;;;;5091945;28;20491;-65
2024/01/24 05:25:47;;;;;;;3.77;2.13;;;;;;;;;;5092536;28;20530;-64
2024/01/24 05:28:14;;;;;;;2.77;1.27;;;;;;;;;;5090435;28;20449;-64
2024/01/24 05:30:41;;;;;;;4.40;1.70;;;;;;;;;;5091957;28;21108;-64
2024/01/24 05:33:10;;;;;;;3.90;1.70;;;;;;;;;;5094121;28;20484;-64
2024/01/24 05:35:36;;;;;;;2.30;1.50;;;;;;;;;;5085520;28;20463;-64
2024/01/24 05:38:03;;;;;;;3.30;1.57;;;;;;;;;;5085902;28;21185;-64
2024/01/24 05:40:29;;;;;;;3.47;1.43;;;;;;;;;;5090110;28;20518;-64
2024/01/24 05:42:56;;;;;;;8.73;1.67;;;;;;;;;;5092845;28;20491;-64
2024/01/24 05:45:23;;;;;;;6.00;1.67;;;;;;;;;;5091923;28;20893;-64
2024/01/24 05:47:50;;;;;;;6.43;1.83;;;;;;;;;;5091643;28;20948;-64
2024/01/24 05:50:18;;;;;;;4.60;1.77;;;;;;;;;;5100258;28;20514;-65
2024/01/24 05:52:44;;;;;;;6.20;1.67;;;;;;;;;;5088188;28;20516;-68
2024/01/24 05:55:11;;;;;;;4.87;1.37;;;;;;;;;;5089123;28;20518;-69
2024/01/24 05:57:40;;;;;;;3.57;2.03;;;;;;;;;;5096492;28;21156;-72
2024/01/24 06:00:08;;;;;;;4.33;1.50;;;;;;;;;;5095885;28;20443;-71
2024/01/24 06:02:34;;;;;;;6.93;1.80;;;;;;;;;;5093875;28;20489;-71
2024/01/24 06:05:01;;;;;;;9.33;2.40;;;;;;;;;;5094095;28;20983;-70
2024/01/24 06:07:28;;;;;;;9.70;2.17;;;;;;;;;;5090413;28;20482;-71
2024/01/24 06:09:55;;;;;;;7.37;3.00;;;;;;;;;;5088539;28;20474;-70
2024/01/24 06:12:21;;;;;;;6.07;2.53;;;;;;;;;;5097006;28;20519;-69
2024/01/24 06:14:48;;;;;;;9.47;2.60;;;;;;;;;;5087524;28;20455;-69
2024/01/24 06:17:14;;;;;;;12.80;2.70;;;;;;;;;;5087827;28;20520;-69
2024/01/24 06:19:42;;;;;;;17.00;2.97;;;;;;;;;;5088069;28;20506;-67
2024/01/24 06:22:09;;;;;;;14.73;3.50;;;;;;;;;;5087851;28;20496;-69
2024/01/24 06:24:37;;;;;;;11.20;2.77;;;;;;;;;;5090951;28;20479;-70
2024/01/24 06:27:04;;;;;;;8.30;3.10;;;;;;;;;;5090763;28;20440;-68
2024/01/24 06:29:30;;;;;;;9.13;3.00;;;;;;;;;;5086548;28;20455;-72
2024/01/24 06:31:57;;;;;;;14.37;3.80;;;;;;;;;;5092590;28;20481;-72
2024/01/24 06:34:23;;;;;;;9.67;4.23;;;;;;;;;;5090506;28;20466;-71
2024/01/24 06:36:50;;;;;;;19.03;4.83;;;;;;;;;;5090221;28;20455;-72
2024/01/24 06:39:16;;;;;;;22.13;4.07;;;;;;;;;;5088838;28;20490;-72
2024/01/24 06:41:44;;;;;;;10.80;3.50;;;;;;;;;;5090239;28;20947;-71
2024/01/24 06:44:10;;;;;;;12.70;3.83;;;;;;;;;;5091702;28;20483;-71
2024/01/24 06:46:41;;;;;;;17.10;4.10;;;;;;;;;;5095259;28;20483;-71
2024/01/24 06:49:10;;;;;;;18.30;4.17;;;;;;;;;;5091581;28;20457;-70
2024/01/24 06:51:37;;;;;;;19.77;6.07;;;;;;;;;;5089892;28;21458;-71
2024/01/24 06:54:03;;;;;;;23.50;5.23;;;;;;;;;;5099020;28;21070;-71
2024/01/24 06:56:30;;;;;;;14.97;5.63;;;;;;;;;;5099249;28;20471;-71
2024/01/24 06:58:58;;;;;;;15.60;5.80;;;;;;;;;;5098330;28;20504;-71
2024/01/24 07:01:24;;;;;;;19.77;5.80;;;;;;;;;;5091623;28;20487;-71
2024/01/24 07:03:51;;;;;;;13.07;5.80;;;;;;;;;;5093402;28;20555;-69
2024/01/24 07:06:17;;;;;;;13.73;7.67;;;;;;;;;;5094157;28;20730;-71
2024/01/24 07:08:44;;;;;;;15.97;6.20;;;;;;;;;;5092810;28;20463;-71
2024/01/24 07:11:12;;;;;;;17.83;5.73;;;;;;;;;;5091163;28;20460;-71
2024/01/24 07:13:38;;;;;;;16.90;6.40;;;;;;;;;;5093369;28;20565;-71
2024/01/24 07:16:07;;;;;;;14.73;6.70;;;;;;;;;;5095229;28;20461;-72
2024/01/24 07:18:33;;;;;;;21.97;7.43;;;;;;;;;;5087048;28;20455;-70
2024/01/24 07:21:00;;;;;;;24.80;7.30;;;;;;;;;;5089311;28;20498;-71
2024/01/24 07:23:26;;;;;;;16.47;7.13;;;;;;;;;;5093102;28;21094;-70
2024/01/24 07:25:52;;;;;;;22.33;7.37;;;;;;;;;;5094273;28;20474;-71
2024/01/24 07:28:19;;;;;;;13.83;6.53;;;;;;;;;;5097387;28;20443;-72
2024/01/24 07:30:46;;;;;;;14.53;7.83;;;;;;;;;;5093451;28;20459;-71
2024/01/24 07:33:14;;;;;;;21.93;7.53;;;;;;;;;;5090725;28;20463;-71
2024/01/24 07:35:41;;;;;;;26.00;6.87;;;;;;;;;;5095448;28;20486;-73
2024/01/24 07:38:07;;;;;;;25.00;9.50;;;;;;;;;;5097250;28;20474;-69
2024/01/24 07:40:34;;;;;;;20.60;7.10;;;;;;;;;;5087532;28;20987;-70
2024/01/24 07:43:00;;;;;;;16.57;7.33;;;;;;;;;;5098038;28;20650;-70
2024/01/24 07:45:28;;;;;;;14.83;6.33;;;;;;;;;;5099046;28;20443;-69
2024/01/24 07:47:54;;;;;;;17.70;7.40;;;;;;;;;;5099429;28;20446;-71
2024/01/24 07:50:22;;;;;;;14.10;7.80;;;;;;;;;;5092413;28;20558;-70
2024/01/24 07:52:48;;;;;;;20.47;8.17;;;;;;;;;;5097266;28;20459;-71
2024/01/24 07:55:15;;;;;;;12.80;6.97;;;;;;;;;;5092601;28;20534;-70
2024/01/24 07:57:41;;;;;;;19.23;7.70;;;;;;;;;;5083012;28;20432;-70
2024/01/24 08:00:08;;;;;;;17.90;6.83;;;;;;;;;;5091030;28;20976;-71
2024/01/24 08:02:34;;;;;;;25.03;7.30;;;;;;;;;;5095180;28;20515;-71
2024/01/24 08:05:01;;;;;;;23.00;7.50;;;;;;;;;;5094780;28;20467;-71
2024/01/24 08:07:31;;;;;;;23.53;9.70;;;;;;;;;;5092949;28;20476;-71
2024/01/24 08:09:57;;;;;;;20.20;7.97;;;;;;;;;;5086911;28;20940;-70
2024/01/24 08:12:24;;;;;;;22.87;8.93;;;;;;;;;;5094578;28;20451;-69
2024/01/24 08:14:50;;;;;;;23.40;8.50;;;;;;;;;;5092941;28;20447;-69
2024/01/24 08:17:16;;;;;;;16.53;7.77;;;;;;;;;;5092202;28;20901;-72
2024/01/24 08:19:43;;;;;;;16.60;7.20;;;;;;;;;;5096248;28;20791;-63
2024/01/24 08:22:09;;;;;;;19.13;8.20;;;;;;;;;;5092604;28;20487;-63
2024/01/24 08:24:37;;;;;;;23.43;8.47;;;;;;;;;;5094854;28;20451;-64
2024/01/24 08:27:04;;;;;;;20.57;8.20;;;;;;;;;;5093678;28;20466;-65
2024/01/24 08:29:30;;;;;;;18.03;8.77;;;;;;;;;;5093184;28;21084;-65
2024/01/24 08:31:57;;;;;;;15.47;7.40;;;;;;;;;;5097648;28;20494;-65
2024/01/24 08:34:23;;;;;;;28.97;8.50;;;;;;;;;;5090547;28;20831;-64
2024/01/24 08:36:49;;;;;;;22.77;8.23;;;;;;;;;;5093904;28;20455;-64
2024/01/24 08:39:16;;;;;;;26.00;7.80;;;;;;;;;;5086886;28;20493;-65
2024/01/24 08:41:44;;;;;;;20.37;9.40;;;;;;;;;;5092193;28;20443;-66
2024/01/24 08:44:10;;;;;;;21.30;9.10;;;;;;;;;;5088291;28;20462;-63
2024/01/24 08:46:37;;;;;;;25.57;8.90;;;;;;;;;;5091588;28;20936;-64
2024/01/24 08:49:03;;;;;;;17.23;8.33;;;;;;;;;;5089001;28;20478;-62
2024/01/24 08:51:31;;;;;;;25.50;9.20;;;;;;;;;;5088887;28;20458;-65
2024/01/24 08:53:58;;;;;;;20.87;8.13;;;;;;;;;;5096961;28;20474;-65
2024/01/24 08:56:24;;;;;;;23.73;8.27;;;;;;;;;;5094378;28;20466;-67
2024/01/24 08:58:52;;;;;;;15.83;7.60;;;;;;;;;;5087523;28;20969;-66
2024/01/24 09:01:18;;;;;;;15.77;8.27;;;;;;;;;;5093567;28;20486;-68
2024/01/24 09:03:46;;;;;;;22.03;7.30;;;;;;;;;;5092340;28;20518;-63
2024/01/24 09:06:13;;;;;;;26.93;9.03;;;;;;;;;;5089015;28;20453;-64
2024/01/24 09:08:39;;;;;;;24.13;8.40;;;;;;;;;;5094078;28;20455;-64
2024/01/24 09:11:06;;;;;;;25.73;9.60;;;;;;;;;;5089693;28;20962;-65
2024/01/24 09:13:32;;;;;;;20.77;8.73;;;;;;;;;;5091700;28;20451;-63
2024/01/24 09:16:00;;;;;;;21.73;7.90;;;;;;;;;;5093698;28;20455;-63
2024/01/24 09:18:27;;;;;;;18.10;7.27;;;;;;;;;;5097145;28;21044;-63
2024/01/24 09:20:54;;;;;;;27.30;8.77;;;;;;;;;;5094577;28;20451;-62
2024/01/24 09:23:20;;;;;;;19.57;8.60;;;;;;;;;;5091744;28;20498;-62
2024/01/24 09:25:47;;;;;;;27.03;10.60;;;;;;;;;;5090253;28;20443;-63
2024/01/24 09:28:13;;;;;;;29.60;8.57;;;;;;;;;;5096243;28;20463;-67
2024/01/24 09:30:40;;;;;;;21.20;9.37;;;;;;;;;;5086407;28;20471;-64
2024/01/24 09:33:08;;;;;;;21.87;8.83;;;;;;;;;;5092139;28;20456;-65
2024/01/24 09:35:35;;;;;;;18.80;8.40;;;;;;;;;;5097582;28;21006;-69
2024/01/24 09:38:01;;;;;;;25.30;9.40;;;;;;;;;;5108108;28;20450;-65
2024/01/24 09:40:28;;;;;;;19.93;7.53;;;;;;;;;;5099087;28;20504;-65
2024/01/24 09:42:54;;;;;;;27.03;8.53;;;;;;;;;;5094050;28;20551;-65
2024/01/24 09:45:22;;;;;;;17.20;9.07;;;;;;;;;;5093201;28;20455;-71
2024/01/24 09:47:50;;;;;;;21.80;9.23;;;;;;;;;;5096116;28;20455;-71
2024/01/24 09:50:18;;;;;;;19.93;8.80;;;;;;;;;;5096352;28;20455;-63
2024/01/24 09:52:45;;;;;;;28.13;10.70;;;;;;;;;;5095825;28;20451;-65
2024/01/24 09:55:13;;;;;;;28.13;10.80;;;;;;;;;;5087011;28;20565;-65
2024/01/24 09:57:40;;;;;;;24.67;8.73;;;;;;;;;;5090240;28;20458;-65
2024/01/24 10:00:09;;;;;;;20.33;9.40;;;;;;;;;;5086246;28;20443;-66
2024/01/24 10:02:35;;;;;;;27.80;9.70;;;;;;;;;;5085120;28;20498;-66
2024/01/24 10:05:03;;;;;;;27.30;9.40;;;;;;;;;;5091913;28;20483;-66
2024/01/24 10:07:31;;;;;;;23.70;9.03;;;;;;;;;;5091545;28;20454;-66
2024/01/24 10:10:07;;;;;;;27.23;10.60;;;;;;;;;;5091904;28;20494;-64
2024/01/24 10:12:34;;;;;;;20.13;9.60;;;;;;;;;;5090338;28;20451;-64
2024/01/24 10:15:00;;;;;;;31.20;10.80;;;;;;;;;;5095265;28;20497;-66
2024/01/24 10:17:27;;;;;;;32.90;14.00;;;;;;;;;;5096243;28;20458;-67
2024/01/24 10:19:53;;;;;;;20.77;7.40;;;;;;;;;;5096536;28;20455;-67
2024/01/24 10:22:21;;;;;;;27.23;9.07;;;;;;;;;;5093597;28;20467;-64
2024/01/24 10:24:49;;;;;;;25.17;8.77;;;;;;;;;;5099644;28;20964;-65
2024/01/24 10:27:16;;;;;;;21.83;7.73;;;;;;;;;;5097005;28;20485;-65
2024/01/24 10:29:43;;;;;;;26.50;10.10;;;;;;;;;;5097490;28;20479;-66
2024/01/24 10:32:10;;;;;;;23.10;9.10;;;;;;;;;;5104975;28;20891;-66
2024/01/24 10:34:37;;;;;;;24.03;10.17;;;;;;;;;;5094783;28;20481;-66
2024/01/24 10:37:04;;;;;;;21.67;8.83;;;;;;;;;;5093185;28;20467;-66
2024/01/24 10:39:32;;;;;;;26.40;9.13;;;;;;;;;;5093023;28;20999;-69
2024/01/24 10:42:01;;;;;;;27.10;9.07;;;;;;;;;;5093036;28;20496;-66
2024/01/24 10:44:30;;;;;;;28.47;10.20;;;;;;;;;;5095163;28;20510;-66
2024/01/24 10:46:57;;;;;;;20.77;8.40;;;;;;;;;;5097937;28;20453;-65
2024/01/24 10:49:24;;;;;;;17.43;9.20;;;;;;;;;;5095200;28;20457;-65
2024/01/24 10:51:50;;;;;;;15.97;8.90;;;;;;;;;;5092225;28;20483;-66
2024/01/24 10:54:17;;;;;;;12.63;8.90;;;;;;;;;;5105612;28;20485;-66
2024/01/24 10:56:46;;;;;;;25.20;9.07;;;;;;;;;;5095257;28;20443;-66
2024/01/24 10:59:14;;;;;;;23.73;8.80;;;;;;;;;;5098861;28;21132;-66
2024/01/24 11:01:41;;;;;;;24.70;8.97;;;;;;;;;;5097227;28;20719;-66
2024/01/24 11:04:08;;;;;;;29.77;9.50;;;;;;;;;;5097918;28;20506;-65
2024/01/24 11:06:37;;;;;;;25.80;10.07;;;;;;;;;;5109721;28;20476;-65
2024/01/24 11:09:08;;;;;;;20.77;8.50;;;;;;;;;;5087363;28;20459;-64
2024/01/24 11:11:36;;;;;;;23.20;9.07;;;;;;;;;;5094992;28;20458;-66
2024/01/24 11:14:02;;;;;;;23.63;9.90;;;;;;;;;;5102922;28;20504;-67
2024/01/24 11:16:31;;;;;;;22.17;8.90;;;;;;;;;;5098022;28;20447;-65
2024/01/24 11:19:18;;;;;;;19.43;8.43;;;;;;;;;;5092700;28;20512;-66
2024/01/24 11:21:44;;;;;;;22.00;9.30;;;;;;;;;;5090017;28;20549;-65
2024/01/24 11:24:11;;;;;;;20.83;8.07;;;;;;;;;;5092760;28;20492;-64
2024/01/24 11:26:49;;;;;;;20.00;8.07;;;;;;;;;;5092403;28;20454;-66
2024/01/24 11:29:16;;;;;;;29.53;10.13;;;;;;;;;;5093834;28;20479;-64
2024/01/24 11:31:44;;;;;;;21.40;8.90;;;;;;;;;;5098772;28;20462;-64
2024/01/24 11:34:11;;;;;;;25.00;10.07;;;;;;;;;;5097476;28;20451;-64
2024/01/24 11:36:41;;;;;;;13.90;7.60;;;;;;;;;;5099102;28;20543;-64
2024/01/24 11:39:22;;;;;;;25.67;9.50;;;;;;;;;;5098151;28;20488;-64
2024/01/24 11:41:49;;;;;;;28.17;10.10;;;;;;;;;;5099198;28;20447;-64
2024/01/24 11:44:19;;;;;;;20.10;8.80;;;;;;;;;;5095510;28;20514;-64
2024/01/24 11:46:47;;;;;;;17.67;8.53;;;;;;;;;;5090821;28;20467;-65
2024/01/24 11:49:13;;;;;;;22.33;9.30;;;;;;;;;;5102422;28;20898;-64
2024/01/24 11:51:40;;;;;;;21.07;8.63;;;;;;;;;;5095094;28;20458;-65
2024/01/24 11:54:06;;;;;;;23.00;9.20;;;;;;;;;;5095278;28;20925;-65
2024/01/24 11:56:35;;;;;;;24.97;10.57;;;;;;;;;;5094040;28;21012;-65
2024/01/24 11:59:02;;;;;;;21.73;9.50;;;;;;;;;;5091083;28;20470;-67
2024/01/24 12:01:29;;;;;;;21.37;9.33;;;;;;;;;;5093848;28;20467;-66
2024/01/24 12:03:56;;;;;;;15.93;9.20;;;;;;;;;;5099661;28;20532;-65
2024/01/24 12:06:23;;;;;;;23.87;9.67;;;;;;;;;;5099270;28;20962;-66
2024/01/24 12:08:49;;;;;;;18.63;8.20;;;;;;;;;;5090449;28;20451;-64
2024/01/24 12:11:16;;;;;;;19.87;8.30;;;;;;;;;;5092366;28;20475;-66
2024/01/24 12:13:42;;;;;;;19.13;7.00;;;;;;;;;;5096651;28;20977;-61
2024/01/24 12:16:09;;;;;;;18.13;8.47;;;;;;;;;;5096617;28;20516;-67
2024/01/24 12:18:37;;;;;;;25.03;8.80;;;;;;;;;;5095416;28;20530;-65
2024/01/24 12:21:09;;;;;;;18.70;7.70;;;;;;;;;;5096860;28;20497;-65
2024/01/24 12:23:35;;;;;;;19.80;8.97;;;;;;;;;;5096854;28;21027;-64
2024/01/24 12:26:02;;;;;;;18.83;9.03;;;;;;;;;;5098392;28;20995;-64
2024/01/24 12:28:28;;;;;;;21.23;8.73;;;;;;;;;;5101416;28;20446;-64
2024/01/24 12:30:57;;;;;;;17.87;7.77;;;;;;;;;;5101743;28;20497;-65
2024/01/24 12:33:23;;;;;;;26.23;9.10;;;;;;;;;;5098355;28;20455;-65
2024/01/24 12:35:50;;;;;;;20.83;8.20;;;;;;;;;;5091013;28;20948;-65
2024/01/24 12:38:18;;;;;;;14.30;6.47;;;;;;;;;;5088999;28;20469;-65
2024/01/24 12:40:48;;;;;;;23.10;7.20;;;;;;;;;;5094682;28;20510;-64
2024/01/24 12:43:15;;;;;;;28.27;9.37;;;;;;;;;;5090794;28;20512;-63
2024/01/24 12:45:41;;;;;;;26.43;8.97;;;;;;;;;;5094221;28;20454;-65
2024/01/24 12:48:10;;;;;;;17.80;9.80;;;;;;;;;;5100941;28;20491;-65
2024/01/24 12:50:36;;;;;;;31.23;9.63;;;;;;;;;;5098015;28;20505;-65
2024/01/24 12:53:02;;;;;;;23.53;8.80;;;;;;;;;;5091173;28;20463;-64
2024/01/24 12:55:31;;;;;;;26.80;8.30;;;;;;;;;;5088845;28;21173;-65
2024/01/24 12:57:57;;;;;;;29.37;9.77;;;;;;;;;;5080731;28;20456;-64
2024/01/24 13:00:24;;;;;;;26.47;9.83;;;;;;;;;;5091590;28;20471;-66
2024/01/24 13:02:50;;;;;;;26.97;9.27;;;;;;;;;;5093035;28;20455;-65
2024/01/24 13:05:18;;;;;;;26.20;9.30;;;;;;;;;;5091338;28;20485;-64
2024/01/24 13:07:44;;;;;;;23.37;9.30;;;;;;;;;;5102610;28;20488;-65
2024/01/24 13:10:12;;;;;;;24.03;9.20;;;;;;;;;;5096047;28;20463;-63
2024/01/24 13:12:40;;;;;;;25.13;9.80;;;;;;;;;;5093475;28;20475;-64
2024/01/24 13:15:07;;;;;;;15.20;7.80;;;;;;;;;;5096428;28;20494;-64
2024/01/24 13:17:33;;;;;;;26.40;8.70;;;;;;;;;;5092211;28;20453;-63
2024/01/24 13:20:00;;;;;;;18.37;7.63;;;;;;;;;;5097652;28;20474;-67
2024/01/24 13:22:27;;;;;;;30.53;8.60;;;;;;;;;;5093125;28;20455;-65
2024/01/24 13:24:53;;;;;;;20.07;7.53;;;;;;;;;;5091174;28;20524;-65
2024/01/24 13:27:20;;;;;;;24.20;8.90;;;;;;;;;;5091004;28;20459;-65
2024/01/24 13:29:48;;;;;;;23.80;10.53;;;;;;;;;;5093024;28;20483;-63
2024/01/24 13:32:14;;;;;;;22.20;10.13;;;;;;;;;;5088793;28;20476;-65
2024/01/24 13:34:40;;;;;;;17.43;8.70;;;;;;;;;;5087792;28;21028;-66
2024/01/24 13:37:07;;;;;;;19.20;8.37;;;;;;;;;;5093903;28;20447;-65
2024/01/24 13:39:33;;;;;;;20.97;8.53;;;;;;;;;;5083296;28;20484;-66
2024/01/24 13:42:00;;;;;;;32.80;7.87;;;;;;;;;;5091246;28;20475;-63
2024/01/24 13:44:26;;;;;;;19.73;8.03;;;;;;;;;;5088984;28;20480;-63
2024/01/24 13:46:54;;;;;;;27.70;9.23;;;;;;;;;;5095310;28;20535;-65
2024/01/24 13:49:21;;;;;;;17.93;8.77;;;;;;;;;;5090679;28;20535;-65
2024/01/24 13:51:47;;;;;;;24.57;8.20;;;;;;;;;;5088920;28;20442;-63
2024/01/24 13:54:13;;;;;;;21.77;7.80;;;;;;;;;;5090902;28;20460;-68
2024/01/24 13:56:40;;;;;;;18.73;10.20;;;;;;;;;;5091886;28;20483;-66
2024/01/24 13:59:06;;;;;;;18.83;9.33;;;;;;;;;;5096526;28;20440;-63
2024/01/24 14:01:33;;;;;;;19.70;9.87;;;;;;;;;;5095674;28;20454;-64
2024/01/24 14:04:01;;;;;;;20.63;8.17;;;;;;;;;;5093646;28;20539;-63
2024/01/24 14:06:27;;;;;;;21.40;10.30;;;;;;;;;;5095457;28;20502;-63
2024/01/24 14:08:53;;;;;;;23.97;7.90;;;;;;;;;;5094033;28;20466;-66
2024/01/24 14:11:20;;;;;;;17.43;7.10;;;;;;;;;;5092202;28;20478;-66
2024/01/24 14:13:48;;;;;;;24.80;6.83;;;;;;;;;;5094204;28;20462;-64
2024/01/24 14:16:15;;;;;;;19.30;7.20;;;;;;;;;;5095023;28;20455;-65
2024/01/24 14:18:42;;;;;;;21.10;7.63;;;;;;;;;;5095342;28;20443;-65
2024/01/24 14:21:10;;;;;;;22.13;7.00;;;;;;;;;;5092298;28;20468;-64
2024/01/24 14:23:36;;;;;;;33.20;9.77;;;;;;;;;;5092668;28;20462;-63
2024/01/24 14:26:03;;;;;;;26.90;10.17;;;;;;;;;;5095658;28;20457;-64
2024/01/24 14:28:29;;;;;;;20.60;9.60;;;;;;;;;;5092967;28;20478;-64